createdAt,value
2022-08-16T05:52:24.573Z,63.30
2022-08-16T05:55:31.104Z,60.93
2022-08-16T05:58:38.240Z,59.63
2022-08-16T06:01:46.109Z,57.28
2022-08-16T06:04:50.779Z,55.47
2022-08-16T06:07:59.094Z,55.79
2022-08-16T06:11:13.414Z,53.25
2022-08-16T06:14:18.559Z,50.13
2022-08-16T06:17:44.527Z,48.36
2022-08-16T06:20:55.456Z,47.14
2022-08-16T06:24:01.226Z,42.45
2022-08-16T06:27:04.411Z,43.96
2022-08-16T06:30:13.379Z,42.54
2022-08-16T06:33:23.681Z,43.20
2022-08-16T06:36:27.376Z,44.01
2022-08-16T06:39:31.226Z,46.12
2022-08-16T06:42:47.114Z,46.22
2022-08-16T06:46:00.359Z,46.39
2022-08-16T06:49:11.170Z,45.49
2022-08-16T06:52:57.176Z,45.19
2022-08-16T06:55:38.384Z,45.12
2022-08-16T06:58:41.428Z,44.66
2022-08-16T07:01:54.545Z,44.02
2022-08-16T07:04:58.252Z,45.19
2022-08-16T07:11:47.545Z,46.56
2022-08-16T07:14:55.519Z,47.00
2022-08-16T07:29:23.993Z,47.92
2022-08-16T07:32:31.642Z,48.01
2022-08-16T07:42:48.303Z,45.59
2022-08-16T07:45:53.061Z,44.84
2022-08-16T07:49:02.505Z,42.26
2022-08-16T07:52:18.901Z,42.17
2022-08-16T07:55:23.695Z,42.64
2022-08-16T07:58:34.780Z,43.69
2022-08-16T08:01:40.408Z,43.50
2022-08-16T08:04:48.177Z,42.11
2022-08-16T08:07:53.261Z,42.64
2022-08-16T08:14:49.247Z,42.70
2022-08-16T08:17:54.828Z,41.76
2022-08-16T08:20:59.945Z,42.66
2022-08-16T08:24:12.477Z,42.59
2022-08-16T08:27:22.473Z,42.58
2022-08-16T08:30:52.271Z,40.43
2022-08-16T08:33:51.832Z,36.59
2022-08-16T08:36:55.195Z,34.67
2022-08-16T08:39:58.837Z,31.95
2022-08-16T08:43:11.863Z,31.16
2022-08-16T08:46:18.371Z,30.31
2022-08-16T08:49:24.723Z,30.52
2022-08-16T08:52:48.110Z,29.86
2022-08-16T08:55:59.289Z,29.50
2022-08-16T08:59:12.831Z,27.42
2022-08-16T09:02:19.542Z,27.64
2022-08-16T09:05:35.985Z,25.60
2022-08-16T09:08:47.321Z,24.36
2022-08-16T09:12:04.066Z,23.39
2022-08-16T09:15:13.874Z,23.95
2022-08-16T09:18:26.734Z,23.50
2022-08-16T09:21:31.453Z,23.70
2022-08-16T09:24:46.742Z,23.59
2022-08-16T09:28:02.363Z,24.38
2022-08-16T09:31:14.959Z,23.84
2022-08-16T09:34:19.433Z,22.31
2022-08-16T09:37:29.338Z,22.79
2022-08-16T09:40:42.352Z,21.38
2022-08-16T09:43:59.249Z,21.71
2022-08-16T09:47:10.308Z,21.28
2022-08-16T09:50:14.492Z,20.46
2022-08-16T09:53:26.799Z,20.68
2022-08-16T09:56:34.141Z,20.37
2022-08-16T09:59:38.551Z,21.05
2022-08-16T10:02:44.378Z,19.97
2022-08-16T10:05:51.242Z,18.08
2022-08-16T10:09:05.511Z,16.78
2022-08-16T10:12:28.178Z,17.55
2022-08-16T10:15:31.922Z,17.66
2022-08-16T10:18:56.648Z,17.82
2022-08-16T10:21:59.905Z,17.98
2022-08-16T10:25:08.969Z,18.65
2022-08-16T10:28:28.808Z,18.60
2022-08-16T10:31:44.504Z,18.59
2022-08-16T10:34:51.479Z,18.44
2022-08-16T10:37:55.269Z,17.76
2022-08-16T10:40:59.604Z,16.58
2022-08-16T10:44:04.454Z,15.20
2022-08-16T10:47:12.193Z,15.23
2022-08-16T10:50:19.614Z,13.27
2022-08-16T10:53:23.110Z,13.19
2022-08-16T10:56:55.699Z,13.98
2022-08-16T10:59:54.451Z,16.17
2022-08-16T11:03:05.707Z,19.00
2022-08-16T11:06:12.049Z,18.92
2022-08-16T11:09:25.501Z,18.78
2022-08-16T11:12:31.598Z,18.39
2022-08-16T11:15:36.010Z,18.62
2022-08-16T11:19:04.698Z,18.89
2022-08-16T11:22:23.303Z,22.70
2022-08-16T11:32:13.625Z,29.25
2022-08-16T11:38:57.022Z,31.57
2022-08-16T11:42:01.197Z,31.46
2022-08-16T11:45:05.511Z,30.53
2022-08-16T11:48:09.510Z,29.87
2022-08-16T11:51:13.428Z,29.70
2022-08-16T11:54:20.639Z,30.24
2022-08-16T11:57:24.467Z,31.14
2022-08-16T12:00:33.977Z,30.92
2022-08-16T12:03:53.627Z,30.75
2022-08-16T12:06:56.123Z,30.88
2022-08-16T12:09:59.702Z,30.75
2022-08-16T12:13:03.956Z,31.64
2022-08-16T12:16:09.178Z,30.60
2022-08-16T12:19:13.811Z,30.85
2022-08-16T12:22:19.860Z,30.65
2022-08-16T12:25:25.618Z,30.36
2022-08-16T12:28:55.093Z,30.73
2022-08-16T12:31:59.122Z,30.54
2022-08-16T12:35:19.419Z,29.86
2022-08-16T12:38:40.995Z,30.07
2022-08-16T12:41:46.809Z,29.67
2022-08-16T12:44:50.263Z,28.63
2022-08-16T12:48:32.986Z,28.51
2022-08-16T12:51:58.363Z,29.18
2022-08-16T12:55:03.987Z,28.95
2022-08-16T12:58:14.247Z,29.51
2022-08-16T13:01:33.303Z,30.16
2022-08-16T13:04:37.690Z,30.14
2022-08-16T13:07:45.043Z,30.82
2022-08-16T13:10:54.502Z,31.85
2022-08-16T13:13:58.336Z,32.31
2022-08-16T13:17:04.009Z,32.76
2022-08-16T13:20:15.695Z,33.10
2022-08-16T13:23:19.387Z,33.04
2022-08-16T13:26:22.993Z,32.91
2022-08-16T13:29:40.020Z,32.56
2022-08-16T13:32:47.353Z,32.15
2022-08-16T13:35:56.214Z,32.12
2022-08-16T13:39:01.634Z,31.91
2022-08-16T13:42:09.857Z,32.46
2022-08-16T13:45:15.929Z,33.03
2022-08-16T13:48:21.828Z,33.39
2022-08-16T13:51:30.668Z,33.67
2022-08-16T13:54:57.330Z,33.54
2022-08-16T13:58:36.467Z,34.01
2022-08-16T14:01:45.721Z,33.86
2022-08-16T14:05:05.895Z,34.16
2022-08-16T14:19:30.105Z,34.66
2022-08-16T14:22:52.511Z,35.26
2022-08-16T14:44:36.093Z,33.78
2022-08-16T14:47:42.455Z,34.91
2022-08-16T14:50:52.991Z,35.56
2022-08-16T14:54:04.552Z,34.97
2022-08-16T14:57:07.495Z,33.72
2022-08-16T15:00:14.120Z,34.34
2022-08-16T15:03:21.774Z,34.66
2022-08-16T15:06:25.551Z,32.74
2022-08-16T15:09:28.295Z,31.58
2022-08-16T15:12:33.378Z,31.29
